Terminal Aerodrome Forecast
Issued by NWS

Home | Current Version | Previous Version | Text Only | Print | Product List | Glossary On
Versions: 1 2 3 4 5 6 7 8 9 10 11 12 13 14 15 16 17 18 19 20 21 22 23 24 25 26 27 28 29 30 31
000
FTUS42 KGSP 201700
TAFHKY
TAF
KHKY 201739Z 2018/2118 20009KT P6SM FEW045 SCT250
     FM210000 19004KT P6SM SCT080 BKN200
     FM210600 24004KT P6SM SCT200
     FM211200 30011KT P6SM SCT030 SCT150=

USA.gov is the U.S. government's official web portal to all federal, state and local government web resources and services.